Time;durP1;ratioP1;P1;durP2;ratioP2;P2;SDS_P1;SDS_P2;PMS_P1;PMS_P2;Temp;Humidity;BMP_temperature;BMP_pressure;BME280_temperature;BME280_humidity;BME280_pressure;Samples;Min_cycle;Max_cycle;Signal;HPM_P1;HPM_P2
2024/04/23 00:01:57;;;;;;;6.83;5.63;;;6.80;99.90;;;;;;5459367;26;20243;-68
2024/04/23 00:04:23;;;;;;;6.60;5.10;;;6.80;99.90;;;;;;5461052;26;20252;-67
2024/04/23 00:06:56;;;;;;;6.00;5.30;;;6.80;99.90;;;;;;5466153;26;20566;-68
2024/04/23 00:09:22;;;;;;;6.10;5.47;;;6.70;99.90;;;;;;5470007;26;20570;-68
2024/04/23 00:11:48;;;;;;;6.60;4.73;;;6.70;99.90;;;;;;5457113;26;21082;-68
2024/04/23 00:14:13;;;;;;;6.60;5.43;;;6.70;99.90;;;;;;5468027;26;20444;-68
2024/04/23 00:16:39;;;;;;;7.70;5.20;;;6.70;99.90;;;;;;5465653;26;20426;-68
2024/04/23 00:19:04;;;;;;;7.73;5.60;;;6.70;99.90;;;;;;5470975;26;20246;-68
2024/04/23 00:21:30;;;;;;;6.53;5.27;;;6.70;99.90;;;;;;5467395;26;20231;-68
2024/04/23 00:23:55;;;;;;;5.90;5.30;;;6.70;99.90;;;;;;5459343;26;20294;-68
2024/04/23 00:26:21;;;;;;;6.00;5.37;;;6.60;99.90;;;;;;5464052;26;21104;-68
2024/04/23 00:28:47;;;;;;;6.67;5.60;;;6.60;99.90;;;;;;5461253;26;20742;-68
2024/04/23 00:31:12;;;;;;;7.57;5.63;;;6.60;99.90;;;;;;5466484;26;20343;-68
2024/04/23 00:33:38;;;;;;;8.10;5.90;;;6.60;99.90;;;;;;5467366;26;20243;-68
2024/04/23 00:36:03;;;;;;;7.90;6.20;;;6.60;99.90;;;;;;5471693;26;20277;-68
2024/04/23 00:38:29;;;;;;;6.60;5.60;;;6.50;99.90;;;;;;5472776;26;20277;-68
2024/04/23 00:40:55;;;;;;;8.10;6.10;;;6.50;99.90;;;;;;5459026;26;20235;-68
2024/04/23 00:43:20;;;;;;;8.07;6.13;;;6.50;99.90;;;;;;5472286;26;20312;-67
2024/04/23 00:45:49;;;;;;;8.83;6.30;;;6.50;99.90;;;;;;5474163;26;20227;-66
2024/04/23 00:48:17;;;;;;;7.33;6.60;;;6.50;99.90;;;;;;5465733;26;20235;-67
2024/04/23 00:50:44;;;;;;;7.33;6.17;;;6.50;99.90;;;;;;5475774;26;20529;-67
2024/04/23 00:53:11;;;;;;;6.60;5.90;;;6.50;99.90;;;;;;5489256;25;20507;-67
2024/04/23 00:55:38;;;;;;;8.60;6.87;;;6.40;99.90;;;;;;5459729;26;20518;-68
2024/04/23 00:58:05;;;;;;;7.60;6.50;;;6.40;99.90;;;;;;5493574;26;20491;-67
2024/04/23 01:00:31;;;;;;;7.80;6.57;;;6.40;99.90;;;;;;5471891;26;20456;-67
2024/04/23 01:02:57;;;;;;;8.20;6.50;;;6.40;99.90;;;;;;5476889;26;20524;-67
2024/04/23 01:05:23;;;;;;;8.40;6.80;;;6.30;99.90;;;;;;5476396;25;20458;-67
2024/04/23 01:07:49;;;;;;;7.13;6.33;;;6.30;99.90;;;;;;5476454;25;20520;-67
2024/04/23 01:10:14;;;;;;;8.83;6.80;;;6.30;99.90;;;;;;5466537;26;20900;-67
2024/04/23 01:12:40;;;;;;;8.57;7.30;;;6.30;99.90;;;;;;5440642;26;20248;-67
2024/04/23 01:15:08;;;;;;;7.70;6.50;;;6.30;99.90;;;;;;5472440;26;20227;-67
2024/04/23 01:17:38;;;;;;;7.53;6.33;;;6.20;99.90;;;;;;5464885;26;20239;-67
2024/04/23 01:20:08;;;;;;;7.57;6.77;;;6.20;99.90;;;;;;5465781;26;20552;-67
2024/04/23 01:22:39;;;;;;;7.53;6.63;;;6.20;99.90;;;;;;5471843;26;20907;-67
2024/04/23 01:25:12;;;;;;;8.57;6.40;;;6.20;99.90;;;;;;5472965;26;20512;-67
2024/04/23 01:27:37;;;;;;;8.17;5.90;;;6.10;99.90;;;;;;5474862;26;20459;-67
2024/04/23 01:30:05;;;;;;;7.00;6.27;;;6.10;99.90;;;;;;5460187;26;20528;-67
2024/04/23 01:32:34;;;;;;;8.67;6.50;;;6.10;99.90;;;;;;5468220;26;20269;-67
2024/04/23 01:35:00;;;;;;;7.00;6.20;;;6.00;99.90;;;;;;5476353;26;20512;-67
2024/04/23 01:37:28;;;;;;;7.47;6.43;;;6.00;99.90;;;;;;5481710;26;20471;-67
2024/04/23 01:39:55;;;;;;;7.90;6.40;;;6.00;99.90;;;;;;5483646;26;20466;-67
2024/04/23 01:42:23;;;;;;;7.97;6.90;;;6.00;99.90;;;;;;5461363;26;20520;-67
2024/04/23 01:44:48;;;;;;;10.27;6.90;;;6.00;99.90;;;;;;5462871;26;20548;-67
2024/04/23 01:47:14;;;;;;;8.47;7.20;;;6.00;99.90;;;;;;5479729;26;20460;-66
2024/04/23 01:49:40;;;;;;;9.20;7.13;;;5.90;99.90;;;;;;5470499;26;20339;-66
2024/04/23 01:52:05;;;;;;;9.33;7.00;;;5.90;99.90;;;;;;5473805;26;20979;-67
2024/04/23 01:54:31;;;;;;;8.10;6.67;;;5.90;99.90;;;;;;5467386;26;21063;-67
2024/04/23 01:57:00;;;;;;;9.23;6.90;;;5.90;99.90;;;;;;5487051;26;20230;-67
2024/04/23 01:59:25;;;;;;;8.63;7.00;;;5.90;99.90;;;;;;5469861;26;20264;-67
2024/04/23 02:01:54;;;;;;;8.83;6.97;;;5.80;99.90;;;;;;5467579;26;21095;-67
2024/04/23 02:04:22;;;;;;;9.97;7.70;;;5.80;99.90;;;;;;5469593;26;20327;-67
2024/04/23 02:06:49;;;;;;;12.70;7.37;;;5.80;99.90;;;;;;5480180;26;20568;-67
2024/04/23 02:09:15;;;;;;;10.10;7.87;;;5.80;99.90;;;;;;5469490;26;20464;-67
2024/04/23 02:11:42;;;;;;;11.00;8.70;;;5.80;99.90;;;;;;5487095;25;20526;-67
2024/04/23 02:14:07;;;;;;;9.63;7.90;;;5.80;99.90;;;;;;5477273;26;20501;-67
2024/04/23 02:16:33;;;;;;;9.03;7.67;;;5.70;99.90;;;;;;5459967;26;20467;-68
2024/04/23 02:18:58;;;;;;;10.80;7.37;;;5.70;99.90;;;;;;5465501;26;20765;-68
2024/04/23 02:21:24;;;;;;;13.10;7.70;;;5.60;99.90;;;;;;5478323;26;20278;-67
2024/04/23 02:23:49;;;;;;;9.40;7.50;;;5.60;99.90;;;;;;5472359;26;20330;-67
2024/04/23 02:26:15;;;;;;;10.50;8.30;;;5.60;99.90;;;;;;5467389;26;20596;-67
2024/04/23 02:28:41;;;;;;;8.30;6.80;;;5.60;99.90;;;;;;5481767;26;20226;-66
2024/04/23 02:31:06;;;;;;;10.70;8.73;;;5.60;99.90;;;;;;5466268;26;20238;-67
2024/04/23 02:33:32;;;;;;;11.20;8.87;;;5.60;99.90;;;;;;5482865;26;20604;-68
2024/04/23 02:35:58;;;;;;;13.83;7.90;;;5.60;99.90;;;;;;5466303;26;20228;-67
2024/04/23 02:38:23;;;;;;;10.50;8.40;;;5.60;99.90;;;;;;5475516;26;20239;-67
2024/04/23 02:40:49;;;;;;;9.93;7.77;;;5.50;99.90;;;;;;5489632;25;20230;-67
2024/04/23 02:43:14;;;;;;;10.20;8.23;;;5.50;99.90;;;;;;5477171;26;20246;-67
2024/04/23 02:45:40;;;;;;;10.33;8.97;;;5.50;99.90;;;;;;5465261;26;20229;-67
2024/04/23 02:48:07;;;;;;;12.63;9.13;;;5.50;99.90;;;;;;5473606;26;21001;-67
2024/04/23 02:50:33;;;;;;;12.30;7.83;;;5.50;99.90;;;;;;5480299;26;20247;-67
2024/04/23 02:52:58;;;;;;;11.07;8.70;;;5.50;99.90;;;;;;5475071;26;20563;-68
2024/04/23 02:55:24;;;;;;;14.77;9.53;;;5.40;99.90;;;;;;5465503;26;21119;-67
2024/04/23 02:57:50;;;;;;;12.27;9.43;;;5.40;99.90;;;;;;5482106;26;20227;-67
2024/04/23 03:00:15;;;;;;;10.40;8.67;;;5.40;99.90;;;;;;5473939;26;20253;-67
2024/04/23 03:02:41;;;;;;;11.37;9.00;;;5.40;99.90;;;;;;5474328;26;20617;-67
2024/04/23 03:05:06;;;;;;;12.63;9.37;;;5.30;99.90;;;;;;5460177;26;21023;-67
2024/04/23 03:07:32;;;;;;;11.83;9.20;;;5.30;99.90;;;;;;5475890;26;20780;-67
2024/04/23 03:09:58;;;;;;;10.20;8.27;;;5.30;99.90;;;;;;5474197;26;20231;-67
2024/04/23 03:12:23;;;;;;;14.00;10.77;;;5.30;99.90;;;;;;5473381;25;20247;-67
2024/04/23 03:14:49;;;;;;;10.40;8.40;;;5.30;99.90;;;;;;5471755;26;20732;-67
2024/04/23 03:17:14;;;;;;;10.43;9.37;;;5.30;99.90;;;;;;5468355;26;20346;-67
2024/04/23 03:19:40;;;;;;;11.13;8.67;;;5.30;99.90;;;;;;5475400;26;20233;-67
2024/04/23 03:22:05;;;;;;;13.43;8.93;;;5.30;99.90;;;;;;5473068;26;20815;-67
2024/04/23 03:24:34;;;;;;;9.40;8.17;;;5.20;99.90;;;;;;5470008;26;20234;-67
2024/04/23 03:26:59;;;;;;;11.20;8.50;;;5.20;99.90;;;;;;5471902;26;20235;-67
2024/04/23 03:29:25;;;;;;;9.57;8.30;;;5.20;99.90;;;;;;5474698;26;20466;-67
2024/04/23 03:32:00;;;;;;;10.73;8.37;;;5.10;99.90;;;;;;5469871;26;20315;-67
2024/04/23 03:34:25;;;;;;;10.70;8.07;;;5.10;99.90;;;;;;5460265;26;20228;-67
2024/04/23 03:36:51;;;;;;;9.57;8.07;;;5.10;99.90;;;;;;5472530;25;20526;-67
2024/04/23 03:39:16;;;;;;;9.20;8.27;;;5.10;99.90;;;;;;5469958;26;20675;-67
2024/04/23 03:42:00;;;;;;;9.83;8.20;;;5.10;99.90;;;;;;5468973;26;20236;-67
2024/04/23 03:44:27;;;;;;;9.63;7.67;;;5.00;99.90;;;;;;5466316;26;20626;-67
2024/04/23 03:46:53;;;;;;;13.27;8.10;;;5.00;99.90;;;;;;5476454;26;20502;-67
2024/04/23 03:49:19;;;;;;;11.67;8.50;;;5.00;99.90;;;;;;5470988;26;20856;-67
2024/04/23 03:51:44;;;;;;;11.00;8.30;;;5.00;99.90;;;;;;5481056;25;20476;-67
2024/04/23 03:54:10;;;;;;;11.23;8.83;;;5.00;99.90;;;;;;5466212;26;20625;-67
2024/04/23 03:56:36;;;;;;;9.57;8.03;;;5.00;99.90;;;;;;5471092;26;20300;-67
2024/04/23 03:59:01;;;;;;;10.73;8.90;;;4.90;99.90;;;;;;5472882;26;20239;-67
2024/04/23 04:01:27;;;;;;;11.13;8.80;;;4.90;99.90;;;;;;5460732;25;20329;-67
2024/04/23 04:06:37;;;;;;;9.83;8.27;;;4.80;99.90;;;;;;5478483;26;20599;-67
2024/04/23 04:09:02;;;;;;;12.57;8.67;;;4.80;99.90;;;;;;5477407;26;20517;-67
2024/04/23 04:11:31;;;;;;;11.43;10.00;;;4.80;99.90;;;;;;5472975;26;20239;-67
2024/04/23 04:14:00;;;;;;;10.80;8.70;;;4.80;99.90;;;;;;5471319;26;20273;-67
2024/04/23 04:16:26;;;;;;;14.70;10.67;;;4.80;99.90;;;;;;5470844;26;21055;-67
2024/04/23 04:18:52;;;;;;;13.63;11.37;;;4.70;99.90;;;;;;5479055;26;20543;-67
2024/04/23 04:21:18;;;;;;;12.10;10.10;;;4.70;99.90;;;;;;5473141;26;20875;-67
2024/04/23 04:23:44;;;;;;;11.60;9.97;;;4.70;99.90;;;;;;5472908;26;20231;-67
2024/04/23 04:26:11;;;;;;;17.90;11.20;;;4.70;99.90;;;;;;5471275;26;20231;-67
2024/04/23 04:28:37;;;;;;;12.70;11.03;;;4.70;99.90;;;;;;5474094;26;20246;-67
2024/04/23 04:31:03;;;;;;;12.87;10.43;;;4.60;99.90;;;;;;5464335;26;20585;-67
2024/04/23 04:33:29;;;;;;;11.43;9.30;;;4.60;99.90;;;;;;5478717;26;20488;-67
2024/04/23 04:35:54;;;;;;;13.00;10.47;;;4.60;99.90;;;;;;5473684;26;20288;-67
2024/04/23 04:38:20;;;;;;;15.03;10.50;;;4.60;99.90;;;;;;5468386;26;20250;-67
2024/04/23 04:40:45;;;;;;;13.07;10.00;;;4.60;99.90;;;;;;5474418;26;20229;-67
2024/04/23 04:43:11;;;;;;;14.70;10.17;;;4.60;99.90;;;;;;5475253;26;20353;-67
2024/04/23 04:45:37;;;;;;;14.00;10.07;;;4.60;99.90;;;;;;5479645;26;20716;-67
2024/04/23 04:48:02;;;;;;;13.40;10.40;;;4.60;99.90;;;;;;5475908;26;20283;-67
2024/04/23 04:50:28;;;;;;;15.40;10.67;;;4.60;99.90;;;;;;5477706;26;20250;-67
2024/04/23 04:52:53;;;;;;;14.07;10.50;;;4.50;99.90;;;;;;5474259;26;20227;-67
2024/04/23 04:55:19;;;;;;;13.03;10.80;;;4.50;99.90;;;;;;5468253;26;20246;-67
2024/04/23 04:57:44;;;;;;;13.83;10.90;;;4.50;99.90;;;;;;5463868;26;20236;-67
2024/04/23 05:00:10;;;;;;;13.20;10.97;;;4.50;99.90;;;;;;5473235;26;20748;-67
2024/04/23 05:02:37;;;;;;;12.93;11.00;;;4.50;99.90;;;;;;5456598;26;20261;-67
2024/04/23 05:05:03;;;;;;;16.40;12.60;;;4.60;99.90;;;;;;5467884;26;20475;-66
2024/04/23 05:07:29;;;;;;;12.80;11.40;;;4.60;99.90;;;;;;5470540;26;20484;-67
2024/04/23 05:09:55;;;;;;;14.73;11.60;;;4.60;99.90;;;;;;5476636;26;20589;-67
2024/04/23 05:12:21;;;;;;;14.73;11.93;;;4.50;99.90;;;;;;5472942;26;21151;-67
2024/04/23 05:14:46;;;;;;;20.67;11.50;;;4.50;99.90;;;;;;5485551;25;20634;-67
2024/04/23 05:17:12;;;;;;;18.23;11.90;;;4.50;99.90;;;;;;5478508;26;20988;-67
2024/04/23 05:19:37;;;;;;;15.50;11.60;;;4.50;99.90;;;;;;5475372;26;20231;-67
2024/04/23 05:22:03;;;;;;;15.10;12.20;;;4.60;99.90;;;;;;5469057;26;20242;-67
2024/04/23 05:24:29;;;;;;;14.40;11.77;;;4.60;99.90;;;;;;5460173;26;20463;-67
2024/04/23 05:26:54;;;;;;;14.77;12.33;;;4.60;99.90;;;;;;5475257;26;20223;-68
2024/04/23 05:29:20;;;;;;;15.33;10.87;;;4.60;99.90;;;;;;5469333;26;20250;-67
2024/04/23 05:34:30;;;;;;;15.63;12.20;;;4.60;99.90;;;;;;5480691;26;20308;-67
2024/04/23 05:36:55;;;;;;;13.60;11.80;;;4.70;99.90;;;;;;5478676;26;20466;-67
2024/04/23 05:39:21;;;;;;;17.10;12.63;;;4.70;99.90;;;;;;5461398;26;20863;-67
2024/04/23 05:41:47;;;;;;;14.57;12.40;;;4.70;99.90;;;;;;5470548;26;20234;-67
2024/04/23 05:44:12;;;;;;;16.40;12.70;;;4.70;99.90;;;;;;5438860;26;20263;-67
2024/04/23 05:46:38;;;;;;;16.40;12.47;;;4.80;99.90;;;;;;5467233;26;20227;-67
2024/04/23 05:49:41;;;;;;;18.43;12.43;;;4.80;99.90;;;;;;5469810;26;20903;-67
2024/04/23 05:52:44;;;;;;;13.90;11.00;;;4.80;99.90;;;;;;5467548;26;20239;-67
2024/04/23 05:55:34;;;;;;;18.00;11.60;;;4.80;99.90;;;;;;5487948;25;20528;-67
2024/04/23 05:58:00;;;;;;;13.90;11.50;;;4.90;99.90;;;;;;5483569;26;20460;-68
2024/04/23 06:00:25;;;;;;;15.43;12.20;;;4.90;99.90;;;;;;5454245;26;20875;-67
2024/04/23 06:02:51;;;;;;;14.50;11.80;;;4.90;99.90;;;;;;5459653;26;20526;-67
2024/04/23 06:05:17;;;;;;;15.23;11.80;;;4.90;99.90;;;;;;5469140;26;20231;-67
2024/04/23 06:07:43;;;;;;;16.77;11.97;;;4.90;99.90;;;;;;5476846;26;20450;-67
2024/04/23 06:10:08;;;;;;;14.97;12.10;;;4.90;99.90;;;;;;5473817;26;20294;-67
2024/04/23 06:12:34;;;;;;;15.10;12.47;;;4.90;99.90;;;;;;5456729;26;20243;-68
2024/04/23 06:14:59;;;;;;;17.43;12.07;;;5.00;99.90;;;;;;5467512;26;20296;-67
2024/04/23 06:17:34;;;;;;;15.37;11.90;;;5.00;99.90;;;;;;5469979;26;20222;-67
2024/04/23 06:20:00;;;;;;;14.30;10.60;;;5.00;99.90;;;;;;5470457;26;20235;-68
2024/04/23 06:22:27;;;;;;;13.90;11.40;;;5.10;99.90;;;;;;5469164;26;20469;-68
2024/04/23 06:24:55;;;;;;;15.60;10.23;;;5.10;99.90;;;;;;5460409;26;20510;-67
2024/04/23 06:27:24;;;;;;;15.60;10.80;;;5.10;99.90;;;;;;5455538;26;20641;-67
2024/04/23 06:29:54;;;;;;;12.87;10.57;;;5.10;99.90;;;;;;5467792;26;20468;-67
2024/04/23 06:32:21;;;;;;;16.23;9.80;;;5.20;99.90;;;;;;5463437;26;20536;-68
2024/04/23 06:34:48;;;;;;;13.13;10.57;;;5.20;99.90;;;;;;5467576;26;20467;-66
2024/04/23 06:37:14;;;;;;;10.70;9.17;;;5.20;99.90;;;;;;5472828;26;20584;-68
2024/04/23 06:39:41;;;;;;;16.60;10.00;;;5.20;99.90;;;;;;5468310;25;20589;-68
2024/04/23 06:42:07;;;;;;;12.10;9.30;;;5.20;99.90;;;;;;5472476;26;20511;-68
2024/04/23 06:44:32;;;;;;;10.73;9.60;;;5.30;99.90;;;;;;5471525;25;20452;-67
2024/04/23 06:46:58;;;;;;;13.23;9.00;;;5.40;99.90;;;;;;5465524;26;20274;-67
2024/04/23 06:49:24;;;;;;;10.57;9.07;;;5.40;99.90;;;;;;5463420;26;20235;-67
2024/04/23 06:51:51;;;;;;;10.73;8.67;;;5.40;99.90;;;;;;5470574;26;20601;-67
2024/04/23 06:54:16;;;;;;;10.47;8.77;;;5.50;99.90;;;;;;5460142;26;21077;-67
2024/04/23 06:56:42;;;;;;;10.00;8.17;;;5.50;99.90;;;;;;5448196;26;20517;-68
2024/04/23 06:59:08;;;;;;;11.77;8.93;;;5.50;99.90;;;;;;5471960;26;20262;-67
2024/04/23 07:01:34;;;;;;;11.20;8.80;;;5.60;99.90;;;;;;5471778;26;22426;-67
2024/04/23 07:04:00;;;;;;;9.20;7.90;;;5.70;99.90;;;;;;5463274;26;20481;-67
2024/04/23 07:06:26;;;;;;;17.10;12.33;;;5.70;99.90;;;;;;5471593;26;20475;-66
2024/04/23 07:08:52;;;;;;;9.57;8.53;;;5.70;99.90;;;;;;5469182;26;20375;-67
2024/04/23 07:11:18;;;;;;;12.63;8.73;;;5.80;99.90;;;;;;5465644;26;20339;-67
2024/04/23 07:13:45;;;;;;;11.10;8.80;;;5.90;99.90;;;;;;5460145;26;20586;-66
2024/04/23 07:16:13;;;;;;;10.90;7.43;;;5.90;99.90;;;;;;5450073;26;20482;-66
2024/04/23 07:18:39;;;;;;;11.37;8.80;;;6.00;99.90;;;;;;5463515;26;20468;-65
2024/04/23 07:21:05;;;;;;;9.87;7.60;;;6.10;99.90;;;;;;5449502;26;20464;-67
2024/04/23 07:23:31;;;;;;;9.60;8.00;;;6.10;99.90;;;;;;5476336;26;20597;-67
2024/04/23 07:25:57;;;;;;;9.47;8.00;;;6.10;99.90;;;;;;5469138;26;20227;-67
2024/04/23 07:28:22;;;;;;;11.80;8.10;;;6.20;99.90;;;;;;5471236;26;20304;-67
2024/04/23 07:30:52;;;;;;;8.57;6.77;;;6.20;99.90;;;;;;5474335;25;20265;-66
2024/04/23 07:33:21;;;;;;;9.40;7.03;;;6.30;99.90;;;;;;5443244;26;20243;-67
2024/04/23 07:35:47;;;;;;;9.03;8.10;;;6.40;99.90;;;;;;5461929;26;21468;-67
2024/04/23 07:38:13;;;;;;;11.37;8.20;;;6.40;99.90;;;;;;5445337;26;20469;-67
2024/04/23 07:40:41;;;;;;;8.80;7.90;;;6.40;99.90;;;;;;5455420;26;21932;-67
2024/04/23 07:43:07;;;;;;;11.33;8.30;;;6.50;99.90;;;;;;5453549;26;20744;-67
2024/04/23 07:45:33;;;;;;;9.10;8.10;;;6.50;99.90;;;;;;5469372;26;20462;-67
2024/04/23 07:47:59;;;;;;;8.67;7.77;;;6.60;99.90;;;;;;5471140;26;20317;-67
2024/04/23 07:50:25;;;;;;;10.47;7.90;;;6.70;99.90;;;;;;5471054;26;20477;-67
2024/04/23 07:52:50;;;;;;;9.73;7.70;;;6.70;99.90;;;;;;5475682;26;20480;-67
2024/04/23 07:55:16;;;;;;;7.97;7.17;;;6.80;99.90;;;;;;5483060;26;20227;-68
2024/04/23 07:57:48;;;;;;;7.90;6.50;;;6.80;99.90;;;;;;5468538;26;20885;-67
2024/04/23 08:00:15;;;;;;;8.07;7.03;;;6.80;99.90;;;;;;5473696;26;20231;-67
2024/04/23 08:02:41;;;;;;;10.07;7.00;;;6.90;99.90;;;;;;5447101;26;21254;-67
2024/04/23 08:05:08;;;;;;;10.93;7.93;;;7.00;99.90;;;;;;5450543;26;20561;-66
2024/04/23 08:07:34;;;;;;;7.80;7.00;;;7.00;99.90;;;;;;5459516;26;20480;-67
2024/04/23 08:09:59;;;;;;;9.40;7.00;;;7.10;99.90;;;;;;5463588;26;20531;-67
2024/04/23 08:12:28;;;;;;;9.07;6.70;;;7.20;99.90;;;;;;5463306;26;20827;-68
2024/04/23 08:14:53;;;;;;;9.37;7.90;;;7.30;99.90;;;;;;5466561;26;20330;-68
2024/04/23 08:17:22;;;;;;;7.73;6.93;;;7.30;99.90;;;;;;5467191;26;20476;-68
2024/04/23 08:19:48;;;;;;;9.30;7.90;;;7.30;99.90;;;;;;5461825;26;20652;-68
2024/04/23 08:22:14;;;;;;;8.20;6.70;;;7.40;99.90;;;;;;5464702;26;20504;-68
2024/04/23 08:24:39;;;;;;;7.47;6.60;;;7.50;99.90;;;;;;5459557;26;20497;-68
2024/04/23 08:27:05;;;;;;;8.03;6.83;;;7.50;99.90;;;;;;5473284;26;20227;-67
2024/04/23 08:29:31;;;;;;;8.57;6.70;;;7.60;99.90;;;;;;5465360;26;20282;-69
2024/04/23 08:31:57;;;;;;;6.93;5.80;;;7.60;99.90;;;;;;5470197;25;20247;-66
2024/04/23 08:34:23;;;;;;;8.80;6.20;;;7.60;99.90;;;;;;5463801;26;20576;-68
2024/04/23 08:36:48;;;;;;;10.77;6.30;;;7.70;99.90;;;;;;5483138;26;20708;-68
2024/04/23 08:39:14;;;;;;;9.87;6.10;;;7.80;99.90;;;;;;5461859;26;20812;-68
2024/04/23 08:41:43;;;;;;;9.80;6.20;;;7.90;99.90;;;;;;5465331;26;20231;-68
2024/04/23 08:44:10;;;;;;;7.43;6.53;;;8.00;99.90;;;;;;5468293;26;20234;-68
2024/04/23 08:46:36;;;;;;;6.70;5.77;;;8.00;99.90;;;;;;5477854;26;20470;-68
2024/04/23 08:49:03;;;;;;;10.93;6.10;;;8.10;99.90;;;;;;5470392;26;21307;-67
2024/04/23 08:51:30;;;;;;;9.00;6.80;;;8.10;99.90;;;;;;5472334;26;20604;-67
2024/04/23 08:53:58;;;;;;;7.10;6.40;;;8.20;99.90;;;;;;5480058;25;20562;-68
2024/04/23 08:56:32;;;;;;;7.30;6.03;;;8.30;99.90;;;;;;5468677;26;20468;-68
2024/04/23 08:59:00;;;;;;;7.80;6.70;;;8.40;99.90;;;;;;5474443;26;20517;-68
2024/04/23 09:01:28;;;;;;;7.20;6.20;;;8.50;99.90;;;;;;5473202;26;20526;-69
2024/04/23 09:03:55;;;;;;;7.90;5.60;;;8.50;99.90;;;;;;5470399;26;20462;-69
2024/04/23 09:06:26;;;;;;;7.30;6.60;;;8.50;99.90;;;;;;5469627;26;20468;-67
2024/04/23 09:08:53;;;;;;;7.77;5.50;;;8.60;99.90;;;;;;5475982;26;20571;-68
2024/04/23 09:11:19;;;;;;;7.83;5.73;;;8.70;99.90;;;;;;5474978;26;20503;-68
2024/04/23 09:13:45;;;;;;;7.77;6.97;;;8.80;99.90;;;;;;5471057;26;21988;-68
2024/04/23 09:16:11;;;;;;;7.07;6.37;;;8.90;99.90;;;;;;5476052;26;20454;-69
2024/04/23 09:18:36;;;;;;;6.57;5.97;;;8.90;99.90;;;;;;5470034;26;20724;-68
2024/04/23 09:21:03;;;;;;;7.30;5.30;;;9.00;99.90;;;;;;5481046;25;20346;-68
2024/04/23 09:23:32;;;;;;;6.30;5.17;;;9.10;99.90;;;;;;5467008;26;20378;-69
2024/04/23 09:26:03;;;;;;;8.10;5.43;;;9.20;99.90;;;;;;5471736;26;20516;-68
2024/04/23 09:28:35;;;;;;;5.93;5.27;;;9.30;99.90;;;;;;5472384;26;20507;-68
2024/04/23 09:31:02;;;;;;;5.93;5.03;;;9.30;99.90;;;;;;5481359;25;20819;-69
2024/04/23 09:33:30;;;;;;;8.73;5.77;;;9.40;99.90;;;;;;5471082;26;20471;-68
2024/04/23 09:36:07;;;;;;;6.77;5.27;;;9.50;99.90;;;;;;5463457;26;20613;-69
2024/04/23 09:38:37;;;;;;;5.40;4.80;;;9.50;99.90;;;;;;5456049;26;20495;-67
2024/04/23 09:41:03;;;;;;;7.33;5.37;;;9.60;99.90;;;;;;5454183;25;20476;-67
2024/04/23 09:43:29;;;;;;;10.50;5.40;;;9.60;99.90;;;;;;5447713;26;20556;-67
2024/04/23 09:45:55;;;;;;;5.83;5.20;;;9.70;99.90;;;;;;5450535;26;20606;-68
2024/04/23 09:48:30;;;;;;;8.53;5.47;;;9.80;99.90;;;;;;5465428;26;20476;-65
2024/04/23 09:51:09;;;;;;;5.70;5.10;;;9.90;99.90;;;;;;5459327;26;20328;-67
2024/04/23 09:53:38;;;;;;;6.20;5.60;;;9.90;99.90;;;;;;5455887;26;21495;-67
2024/04/23 09:56:10;;;;;;;6.07;5.47;;;10.00;99.90;;;;;;5443125;26;20599;-68
2024/04/23 09:58:36;;;;;;;5.97;5.03;;;10.20;99.90;;;;;;5456990;26;20473;-68
2024/04/23 10:01:03;;;;;;;6.60;5.30;;;10.30;99.90;;;;;;5466047;26;20567;-68
2024/04/23 10:03:29;;;;;;;6.67;6.00;;;10.30;99.90;;;;;;5461433;26;20231;-68
2024/04/23 10:06:04;;;;;;;5.53;5.03;;;10.50;99.80;;;;;;5454064;26;20465;-68
2024/04/23 10:09:04;;;;;;;6.93;6.23;;;10.60;99.30;;;;;;5454265;26;20471;-67
2024/04/23 10:11:43;;;;;;;6.20;5.60;;;10.60;99.20;;;;;;5450976;26;20473;-68
2024/04/23 10:14:25;;;;;;;5.40;4.90;;;10.70;97.20;;;;;;5453672;26;21032;-67
2024/04/23 10:16:53;;;;;;;6.57;5.50;;;10.80;97.40;;;;;;5457714;26;20531;-67
2024/04/23 10:19:21;;;;;;;7.73;5.40;;;10.80;97.10;;;;;;5454610;26;20468;-68
2024/04/23 10:21:47;;;;;;;7.10;5.93;;;10.90;96.60;;;;;;5440959;26;20548;-66
2024/04/23 10:24:14;;;;;;;5.23;4.67;;;11.00;96.30;;;;;;5455958;26;21246;-67
2024/04/23 10:26:42;;;;;;;6.20;5.47;;;11.10;95.00;;;;;;5468320;25;21087;-67
2024/04/23 10:29:09;;;;;;;5.80;5.20;;;11.10;93.40;;;;;;5452757;26;21299;-66
2024/04/23 10:31:35;;;;;;;8.07;4.87;;;11.10;93.00;;;;;;5453929;26;20529;-66
2024/04/23 10:34:03;;;;;;;8.30;5.40;;;11.20;93.50;;;;;;5437058;26;20595;-67
2024/04/23 10:36:30;;;;;;;5.60;4.70;;;11.30;93.00;;;;;;5439821;26;20879;-66
2024/04/23 10:38:59;;;;;;;5.87;5.33;;;11.40;92.40;;;;;;5447675;26;20460;-68
2024/04/23 10:41:26;;;;;;;6.07;5.20;;;11.50;92.00;;;;;;5453635;26;20473;-68
2024/04/23 10:43:56;;;;;;;5.53;4.90;;;11.60;92.10;;;;;;5453180;26;20821;-68
2024/04/23 10:46:21;;;;;;;6.10;5.00;;;11.70;91.80;;;;;;5460246;26;20549;-67
2024/04/23 10:48:57;;;;;;;5.70;5.20;;;11.70;88.80;;;;;;5462372;26;20461;-67
2024/04/23 10:51:24;;;;;;;5.37;4.63;;;11.70;89.00;;;;;;5454676;26;20242;-68
2024/04/23 10:53:53;;;;;;;4.10;3.70;;;11.70;86.90;;;;;;5453819;26;20504;-67
2024/04/23 10:56:26;;;;;;;5.50;4.37;;;11.80;81.80;;;;;;5455083;26;20546;-68
2024/04/23 10:59:02;;;;;;;4.40;4.00;;;11.80;81.00;;;;;;5461432;26;20473;-68
2024/04/23 11:01:28;;;;;;;4.40;4.00;;;11.90;80.10;;;;;;5456034;26;20511;-68
2024/04/23 11:03:57;;;;;;;4.77;4.37;;;12.00;80.70;;;;;;5453891;26;20470;-68
2024/04/23 11:06:43;;;;;;;4.20;3.80;;;12.10;81.00;;;;;;5461919;26;21322;-68
2024/04/23 11:09:19;;;;;;;4.13;3.57;;;12.10;75.90;;;;;;5446016;26;20495;-67
2024/04/23 11:11:52;;;;;;;4.97;4.47;;;12.20;76.20;;;;;;5434045;26;20483;-67
2024/04/23 11:14:17;;;;;;;6.10;4.00;;;12.20;75.30;;;;;;5445125;26;20480;-66
2024/04/23 11:16:43;;;;;;;5.33;4.43;;;12.30;73.80;;;;;;5455664;26;20469;-66
2024/04/23 11:19:09;;;;;;;5.13;4.57;;;12.40;73.10;;;;;;5445486;26;20826;-66
2024/04/23 11:21:41;;;;;;;5.23;4.73;;;12.60;74.10;;;;;;5452395;26;20316;-66
2024/04/23 11:24:11;;;;;;;4.77;4.37;;;12.70;74.40;;;;;;5447229;26;20235;-67
2024/04/23 11:26:39;;;;;;;6.67;4.70;;;12.90;73.40;;;;;;5452367;26;21031;-66
2024/04/23 11:29:10;;;;;;;9.07;6.67;;;13.00;73.90;;;;;;5442375;26;20528;-66
2024/04/23 11:31:36;;;;;;;6.07;4.93;;;13.20;73.70;;;;;;5441555;26;20487;-67
2024/04/23 11:34:03;;;;;;;10.53;4.90;;;13.30;67.90;;;;;;5437419;26;23282;-66
2024/04/23 11:36:28;;;;;;;4.23;3.83;;;13.40;67.80;;;;;;5445320;26;20452;-66
2024/04/23 11:39:00;;;;;;;5.17;4.40;;;13.60;66.80;;;;;;5448557;26;20509;-66
2024/04/23 11:41:25;;;;;;;4.00;3.70;;;13.80;67.00;;;;;;5450326;26;20740;-66
2024/04/23 11:43:51;;;;;;;4.40;4.00;;;14.00;64.20;;;;;;5442607;26;20626;-66
2024/04/23 11:46:17;;;;;;;11.80;10.53;;;14.30;64.30;;;;;;5443071;26;20274;-66
2024/04/23 11:48:43;;;;;;;6.63;5.93;;;14.60;64.80;;;;;;5450037;26;20238;-66
2024/04/23 11:51:13;;;;;;;7.53;6.40;;;14.90;65.10;;;;;;5443888;26;20238;-67
2024/04/23 11:53:39;;;;;;;4.50;4.10;;;15.40;64.60;;;;;;5452259;26;21025;-66
2024/04/23 11:56:05;;;;;;;5.33;4.30;;;15.70;62.90;;;;;;5446394;26;20481;-66
2024/04/23 11:58:31;;;;;;;4.70;4.20;;;16.10;60.90;;;;;;5449522;26;20239;-65
2024/04/23 12:00:56;;;;;;;4.37;3.97;;;16.60;59.50;;;;;;5459229;26;20895;-66
2024/04/23 12:03:23;;;;;;;4.47;4.07;;;17.50;59.10;;;;;;5445462;26;20283;-66
2024/04/23 12:05:49;;;;;;;4.67;3.67;;;19.20;58.50;;;;;;5446416;26;20226;-66
2024/04/23 12:08:16;;;;;;;3.90;3.60;;;20.80;55.10;;;;;;5447738;26;20524;-66
2024/04/23 12:10:43;;;;;;;7.73;4.47;;;21.40;50.40;;;;;;5459327;26;20509;-66
2024/04/23 12:13:16;;;;;;;4.37;3.97;;;22.60;47.60;;;;;;5445950;26;20535;-66
2024/04/23 12:15:42;;;;;;;5.40;4.90;;;23.60;44.90;;;;;;5450724;26;21168;-66
2024/04/23 12:18:08;;;;;;;6.53;5.17;;;24.30;42.50;;;;;;5443896;26;20493;-66
2024/04/23 12:20:33;;;;;;;5.90;5.40;;;24.50;41.60;;;;;;5440057;26;20227;-66
2024/04/23 12:23:09;;;;;;;6.10;5.10;;;23.80;39.90;;;;;;5441077;26;20396;-66
2024/04/23 12:25:36;;;;;;;6.07;5.23;;;24.10;40.80;;;;;;5436774;26;20358;-66
2024/04/23 12:28:02;;;;;;;7.00;6.30;;;23.20;38.90;;;;;;5444059;26;20872;-65
2024/04/23 12:30:29;;;;;;;5.70;5.10;;;22.10;38.90;;;;;;5444273;26;20452;-65
2024/04/23 12:32:56;;;;;;;6.03;5.13;;;21.00;39.80;;;;;;5450906;26;20537;-65
2024/04/23 12:35:21;;;;;;;5.90;5.30;;;20.20;40.60;;;;;;5445104;26;20468;-64
2024/04/23 12:37:48;;;;;;;7.00;4.93;;;19.60;41.50;;;;;;5438783;26;21416;-65
2024/04/23 12:40:16;;;;;;;5.40;4.90;;;20.10;43.40;;;;;;5444087;26;20219;-66
2024/04/23 12:42:42;;;;;;;5.67;5.17;;;21.10;43.00;;;;;;5440445;26;20518;-66
2024/04/23 12:45:08;;;;;;;6.03;5.50;;;21.60;42.40;;;;;;5459773;26;20464;-66
2024/04/23 12:47:34;;;;;;;5.37;4.97;;;20.70;39.90;;;;;;5456520;26;20555;-66
2024/04/23 12:49:59;;;;;;;5.53;5.03;;;20.40;41.30;;;;;;5457870;26;20235;-66
2024/04/23 12:52:25;;;;;;;5.80;5.30;;;20.60;41.10;;;;;;5451995;26;20265;-66
2024/04/23 12:54:50;;;;;;;8.43;5.23;;;20.60;40.40;;;;;;5444072;26;20321;-65